Fillmore, Indiana
Current Conditions -  °F | °C
As of 2:15 PM on Sunday 23 Nov 2014 (Local Time) from K4I7 Reporting Station
Haze Haze  
Wind Chill: 50°   Ceiling: 700
Heat Index: 50°   Visibility: 3mi
Dew Point: 50°   Wind: 8mph
Humidity: 100%   Direction: 130°SE
Pressure: 29.61"   Gusts: NA
Location:  39.67°N, 86.75°W
Report Text: K4I7 231915Z AUTO 13007KT 3SM BR BKN007 OVC010 10/10 A2961 RMK AO2
Loading
Personal Weather Stations






























Interactive Weather Map New forecast layout! Learn more

10-Day Weather Forecast

Advertisements
Track Severe Weather on mobile